Estestar — 3ECR8 — position and weather

sailwx.info

Track history (hours):
 
Tides and Currents Weather Stations Pressure Air Temp Water Temp Dewpoint Dewpoint Depression Visibility Wind Speed Wind Dir Waves Ship Positions

Estestar

Last reported at 2017-Apr-27 12:23 UTC. Time now 2017-Apr-28 00:42 UTC.
Position N 45°54' E 036°47'.

Length 133 m; draft 4.3 m.

Type: Cargo ship. MMSI: 371448000.

Date/timePositionNaut miles runAvg speedWind from/ knotsBaromVisibWave heightAir tempDewpointWater temp
2017-Apr-27 12:23N 45°54' E 036°47'411.3
2017-Apr-27 12:00N 45°50' E 036°47'611.3
2017-Apr-27 11:28N 45°44' E 036°46'511.2
2017-Apr-27 11:00N 45°39' E 036°45'611.2
2017-Apr-27 10:30N 45°33' E 036°44'611.1
2017-Apr-27 10:00N 45°28' E 036°42'510.9
2017-Apr-27 09:30N 45°23' E 036°40'4 9.0
2017-Apr-27 09:00N 45°20' E 036°35'5 9.6
2017-Apr-27 08:30N 45°18' E 036°29'4 7.5
2017-Apr-27 08:00N 45°14' E 036°28'4 7.6
2017-Apr-27 07:30N 45°10' E 036°29'5 9.8
2017-Apr-27 07:00N 45°05' E 036°30'510.8
2017-Apr-27 06:30N 45°00' E 036°31'611.0
2017-Apr-27 06:00N 44°54' E 036°31'511.1
2017-Apr-27 05:30N 44°49' E 036°32'5 9.6
2017-Apr-27 04:58N 44°45' E 036°27'510.8
2017-Apr-27 04:30N 44°42' E 036°21'511.0
2017-Apr-27 04:00N 44°39' E 036°15'388 9.9
2017-Apr-25 12:40N 40°59' E 028°60'2 8.8
2017-Apr-25 12:23N 40°56' E 028°59'3 8.4
2017-Apr-25 12:00N 40°54' E 028°56'4 8.0
2017-Apr-25 11:30N 40°51' E 028°53'8 0.9
2017-Apr-25 03:03N 40°44' E 028°47'0 1.0
2017-Apr-25 02:57N 40°45' E 028°47'2 0.9
2017-Apr-25 01:04N 40°46' E 028°49'0 3.0
2017-Apr-25 00:59N 40°46' E 028°48'253 9.2
2017-Apr-23 21:27N 38°01' E 024°41'511.0
2017-Apr-23 21:00N 37°57' E 024°38'511.1
2017-Apr-23 20:30N 37°51' E 024°36'611.1
2017-Apr-23 20:00N 37°46' E 024°34'611.0
2017-Apr-23 19:30N 37°41' E 024°31'1910.4
2017-Apr-23 17:39N 37°25' E 024°17'  
2017-Apr-20 17:04N 44°28' E 012°39'111.1
2017-Apr-20 17:00N 44°28' E 012°38'510.8
2017-Apr-20 16:30N 44°30' E 012°30'12 0.3
2017-Apr-19 03:30N 44°27' E 012°15'0 0.0
2017-Apr-19 00:48N 44°27' E 012°15'2 0.1
2017-Apr-18 05:42N 44°28' E 012°15'5 5.6
2017-Apr-18 04:53N 44°30' E 012°21'2 5.2
2017-Apr-18 04:30N 44°30' E 012°24'2 3.8
2017-Apr-18 03:58N 44°31' E 012°27'0 0.0
2017-Apr-18 03:22N 44°31' E 012°27'0 0.0
2017-Apr-18 02:58N 44°31' E 012°27'0 0.0
2017-Apr-18 02:28N 44°31' E 012°27'0 0.1
2017-Apr-18 01:49N 44°31' E 012°27'0 0.1
2017-Apr-18 01:28N 44°31' E 012°27'0 0.1
2017-Apr-18 00:49N 44°31' E 012°27'0 0.1
2017-Apr-18 00:28N 44°31' E 012°27'0 0.1
2017-Apr-17 23:58N 44°31' E 012°26'0 0.0
2017-Apr-17 23:28N 44°31' E 012°26'0 0.0
2017-Apr-17 22:58N 44°31' E 012°26'0 0.0
2017-Apr-17 22:28N 44°31' E 012°26'0 0.0
2017-Apr-17 21:58N 44°31' E 012°26'0 0.0
2017-Apr-17 21:22N 44°31' E 012°26'0 0.0
2017-Apr-17 20:58N 44°31' E 012°26'0 0.0
2017-Apr-17 20:28N 44°31' E 012°26'0 0.1
2017-Apr-17 19:59N 44°31' E 012°26'0 0.0
2017-Apr-17 19:25N 44°31' E 012°26'0 0.0
2017-Apr-17 18:52N 44°31' E 012°26'0 0.0
2017-Apr-17 18:28N 44°31' E 012°26'0 0.0
2017-Apr-17 17:49N 44°31' E 012°26'0 0.0
2017-Apr-17 17:28N 44°31' E 012°26'0 0.0
2017-Apr-17 15:58N 44°31' E 012°26'0 0.0
2017-Apr-17 12:28N 44°31' E 012°26'  
Track history (hours):
 
Tides and Currents Weather Stations Pressure Air Temp Water Temp Dewpoint Dewpoint Depression Visibility Wind Speed Wind Dir Waves Ship Positions

Estestar

Last reported at 2017-Apr-27 12:23 UTC. Time now 2017-Apr-28 00:42 UTC.
Position N 45°54' E 036°47'.

Length 133 m; draft 4.3 m.

Type: Cargo ship. MMSI: 371448000.

Date/timePositionNaut miles runAvg speedWind from/ knotsBaromVisibWave heightAir tempDewpointWater temp
2017-Apr-27 12:23N 45°54' E 036°47'411.3
2017-Apr-27 12:00N 45°50' E 036°47'611.3
2017-Apr-27 11:28N 45°44' E 036°46'511.2
2017-Apr-27 11:00N 45°39' E 036°45'611.2
2017-Apr-27 10:30N 45°33' E 036°44'611.1
2017-Apr-27 10:00N 45°28' E 036°42'510.9
2017-Apr-27 09:30N 45°23' E 036°40'4 9.0
2017-Apr-27 09:00N 45°20' E 036°35'5 9.6
2017-Apr-27 08:30N 45°18' E 036°29'4 7.5
2017-Apr-27 08:00N 45°14' E 036°28'4 7.6
2017-Apr-27 07:30N 45°10' E 036°29'5 9.8
2017-Apr-27 07:00N 45°05' E 036°30'510.8
2017-Apr-27 06:30N 45°00' E 036°31'611.0
2017-Apr-27 06:00N 44°54' E 036°31'511.1
2017-Apr-27 05:30N 44°49' E 036°32'5 9.6
2017-Apr-27 04:58N 44°45' E 036°27'510.8
2017-Apr-27 04:30N 44°42' E 036°21'511.0
2017-Apr-27 04:00N 44°39' E 036°15'388 9.9
2017-Apr-25 12:40N 40°59' E 028°60'2 8.8
2017-Apr-25 12:23N 40°56' E 028°59'3 8.4
2017-Apr-25 12:00N 40°54' E 028°56'4 8.0
2017-Apr-25 11:30N 40°51' E 028°53'8 0.9
2017-Apr-25 03:03N 40°44' E 028°47'0 1.0
2017-Apr-25 02:57N 40°45' E 028°47'2 0.9
2017-Apr-25 01:04N 40°46' E 028°49'0 3.0
2017-Apr-25 00:59N 40°46' E 028°48'253 9.2
2017-Apr-23 21:27N 38°01' E 024°41'511.0
2017-Apr-23 21:00N 37°57' E 024°38'511.1
2017-Apr-23 20:30N 37°51' E 024°36'611.1
2017-Apr-23 20:00N 37°46' E 024°34'611.0
2017-Apr-23 19:30N 37°41' E 024°31'1910.4
2017-Apr-23 17:39N 37°25' E 024°17'  
2017-Apr-20 17:04N 44°28' E 012°39'111.1
2017-Apr-20 17:00N 44°28' E 012°38'510.8
2017-Apr-20 16:30N 44°30' E 012°30'12 0.3
2017-Apr-19 03:30N 44°27' E 012°15'0 0.0
2017-Apr-19 00:48N 44°27' E 012°15'2 0.1
2017-Apr-18 05:42N 44°28' E 012°15'5 5.6
2017-Apr-18 04:53N 44°30' E 012°21'2 5.2
2017-Apr-18 04:30N 44°30' E 012°24'2 3.8
2017-Apr-18 03:58N 44°31' E 012°27'0 0.0
2017-Apr-18 03:22N 44°31' E 012°27'0 0.0
2017-Apr-18 02:58N 44°31' E 012°27'0 0.0
2017-Apr-18 02:28N 44°31' E 012°27'0 0.1
2017-Apr-18 01:49N 44°31' E 012°27'0 0.1
2017-Apr-18 01:28N 44°31' E 012°27'0 0.1
2017-Apr-18 00:49N 44°31' E 012°27'0 0.1
2017-Apr-18 00:28N 44°31' E 012°27'0 0.1
2017-Apr-17 23:58N 44°31' E 012°26'0 0.0
2017-Apr-17 23:28N 44°31' E 012°26'0 0.0
2017-Apr-17 22:58N 44°31' E 012°26'0 0.0
2017-Apr-17 22:28N 44°31' E 012°26'0 0.0
2017-Apr-17 21:58N 44°31' E 012°26'0 0.0
2017-Apr-17 21:22N 44°31' E 012°26'0 0.0
2017-Apr-17 20:58N 44°31' E 012°26'0 0.0
2017-Apr-17 20:28N 44°31' E 012°26'0 0.1
2017-Apr-17 19:59N 44°31' E 012°26'0 0.0
2017-Apr-17 19:25N 44°31' E 012°26'0 0.0
2017-Apr-17 18:52N 44°31' E 012°26'0 0.0
2017-Apr-17 18:28N 44°31' E 012°26'0 0.0
2017-Apr-17 17:49N 44°31' E 012°26'0 0.0
2017-Apr-17 17:28N 44°31' E 012°26'0 0.0
2017-Apr-17 15:58N 44°31' E 012°26'0 0.0
2017-Apr-17 12:28N 44°31' E 012°26'  

Dump ship's entire track history